createdAt,value
2019-05-13T00:03:44.009Z,21
2019-05-13T00:08:43.975Z,22
2019-05-13T00:13:44.324Z,22
2019-05-13T00:18:44.324Z,22
2019-05-13T00:23:44.172Z,23
2019-05-13T00:28:44.320Z,22
2019-05-13T00:33:44.396Z,28
2019-05-13T00:38:43.982Z,22
2019-05-13T00:43:44.385Z,22
2019-05-13T00:48:43.868Z,21
2019-05-13T00:53:44.136Z,22
2019-05-13T00:58:43.653Z,20
2019-05-13T01:03:44.137Z,20
2019-05-13T01:08:46.359Z,22
2019-05-13T01:13:43.276Z,19
2019-05-13T01:18:44.805Z,20
2019-05-13T01:23:43.797Z,20
2019-05-13T01:28:43.540Z,18
2019-05-13T01:33:44.453Z,20
2019-05-13T01:38:43.529Z,20
2019-05-13T01:43:44.054Z,17
2019-05-13T01:48:43.667Z,20
2019-05-13T01:53:44.021Z,18
2019-05-13T01:58:44.712Z,19
2019-05-13T02:03:44.158Z,20
2019-05-13T02:08:43.951Z,19
2019-05-13T02:13:44.621Z,19
2019-05-13T02:18:48.543Z,18
2019-05-13T02:23:44.247Z,19
2019-05-13T02:28:43.548Z,20
2019-05-13T02:33:44.572Z,20
2019-05-13T02:38:44.881Z,20
2019-05-13T02:43:52.378Z,20
2019-05-13T02:48:44.385Z,22
2019-05-13T02:53:45.625Z,22
2019-05-13T02:58:46.824Z,20
2019-05-13T03:03:46.382Z,19
2019-05-13T03:08:54.274Z,19
2019-05-13T03:13:44.723Z,18
2019-05-13T03:18:45.546Z,19
2019-05-13T03:23:46.411Z,18
2019-05-13T03:28:45.817Z,20
2019-05-13T03:33:55.457Z,20
2019-05-13T03:39:15.830Z,20
2019-05-13T03:43:44.969Z,20
2019-05-13T03:48:44.907Z,22
2019-05-13T03:53:45.399Z,22
2019-05-13T03:58:45.490Z,20
2019-05-13T04:03:46.204Z,20
2019-05-13T04:08:45.748Z,20
2019-05-13T04:13:44.939Z,19
2019-05-13T04:18:44.751Z,20
2019-05-13T04:23:44.884Z,20
2019-05-13T04:28:45.446Z,20
2019-05-13T04:33:46.989Z,21
2019-05-13T04:38:46.146Z,21
2019-05-13T04:43:45.981Z,20
2019-05-13T04:48:47.220Z,20
2019-05-13T04:53:44.467Z,18
2019-05-13T04:58:45.110Z,17
2019-05-13T05:03:52.758Z,16
2019-05-13T05:08:47.332Z,18
2019-05-13T05:13:44.939Z,17
2019-05-13T05:18:44.236Z,18
2019-05-13T05:23:44.417Z,25
2019-05-13T05:28:43.594Z,18
2019-05-13T05:33:43.280Z,19
2019-05-13T05:38:45.327Z,17
2019-05-13T05:43:47.219Z,16
2019-05-13T05:48:44.112Z,19
2019-05-13T05:53:44.388Z,19
2019-05-13T05:58:44.024Z,18
2019-05-13T06:03:43.898Z,15
2019-05-13T06:08:43.460Z,16
2019-05-13T06:13:44.121Z,17
2019-05-13T06:18:43.612Z,17
2019-05-13T06:23:43.992Z,18
2019-05-13T06:28:43.570Z,16
2019-05-13T06:33:44.308Z,14
2019-05-13T06:38:44.586Z,13
2019-05-13T06:43:43.980Z,16
2019-05-13T06:48:43.595Z,15
2019-05-13T06:53:43.576Z,13
2019-05-13T06:58:46.850Z,14
2019-05-13T07:03:44.002Z,11
2019-05-13T07:08:43.917Z,12
2019-05-13T07:13:44.379Z,12
2019-05-13T07:18:43.680Z,12
2019-05-13T07:23:44.446Z,12
2019-05-13T07:28:44.889Z,11
2019-05-13T07:33:44.737Z,12
2019-05-13T07:38:43.672Z,15
2019-05-13T07:43:44.749Z,13
2019-05-13T07:48:43.696Z,14
2019-05-13T07:53:44.705Z,16
2019-05-13T07:58:44.006Z,11
2019-05-13T08:03:44.316Z,12
2019-05-13T08:08:43.851Z,11
2019-05-13T08:13:44.526Z,13
2019-05-13T08:18:45.778Z,14
2019-05-13T08:23:45.840Z,11
2019-05-13T08:29:05.893Z,11
2019-05-13T08:33:44.570Z,11
2019-05-13T08:38:45.109Z,13
2019-05-13T08:43:43.982Z,10
2019-05-13T08:48:45.027Z,12
2019-05-13T08:53:44.624Z,13
2019-05-13T08:58:43.378Z,13
2019-05-13T09:03:43.861Z,12
2019-05-13T09:08:53.054Z,10
2019-05-13T09:13:51.339Z,11
2019-05-13T09:18:51.936Z,13
2019-05-13T09:23:51.286Z,11
2019-05-13T09:28:49.245Z,12
2019-05-13T09:33:51.388Z,10
2019-05-13T09:38:49.271Z,9
2019-05-13T09:43:51.294Z,12
2019-05-13T09:48:51.547Z,10
2019-05-13T09:53:51.313Z,10
2019-05-13T09:58:51.249Z,11
2019-05-13T10:04:02.905Z,10
2019-05-13T10:08:49.328Z,11
2019-05-13T10:13:50.934Z,11
2019-05-13T10:18:49.220Z,11
2019-05-13T10:23:49.254Z,13
2019-05-13T10:28:49.199Z,12
2019-05-13T10:33:51.291Z,12
2019-05-13T10:38:51.871Z,12
2019-05-13T10:43:51.761Z,12
2019-05-13T10:48:49.219Z,14
2019-05-13T10:53:49.227Z,12
2019-05-13T10:58:49.196Z,13
2019-05-13T11:03:52.129Z,18
2019-05-13T11:08:49.196Z,16
2019-05-13T11:14:12.754Z,15
2019-05-13T11:18:51.650Z,15
2019-05-13T11:23:49.570Z,16
2019-05-13T11:28:51.348Z,15
2019-05-13T11:33:51.725Z,15
2019-05-13T11:38:49.764Z,15
2019-05-13T11:44:16.601Z,13
2019-05-13T11:48:51.613Z,13
2019-05-13T11:53:49.189Z,14
2019-05-13T11:58:49.189Z,14
2019-05-13T12:03:49.148Z,13
2019-05-13T12:08:57.595Z,13
2019-05-13T12:13:54.792Z,14
2019-05-13T12:18:51.901Z,13
2019-05-13T12:23:52.647Z,12
2019-05-13T12:28:53.484Z,14
2019-05-13T12:33:52.179Z,15
2019-05-13T12:38:53.271Z,12
2019-05-13T12:43:53.566Z,13
2019-05-13T12:48:50.110Z,14
2019-05-13T12:53:52.632Z,13
2019-05-13T12:58:51.899Z,12
2019-05-13T13:03:50.115Z,15
2019-05-13T13:08:53.982Z,13
2019-05-13T13:14:14.171Z,14
2019-05-13T13:18:54.228Z,12
2019-05-13T13:23:50.159Z,12
2019-05-13T13:28:54.991Z,13
2019-05-13T13:38:55.628Z,12
2019-05-13T13:43:53.759Z,12
2019-05-13T13:48:54.699Z,13
2019-05-13T13:53:54.977Z,14
2019-05-13T13:58:50.179Z,11
2019-05-13T14:03:52.952Z,13
2019-05-13T14:08:54.077Z,11
2019-05-13T14:13:51.577Z,13
2019-05-13T14:18:50.209Z,12
2019-05-13T14:23:56.244Z,13
2019-05-13T14:28:57.567Z,12
2019-05-13T14:33:56.419Z,13
2019-05-13T14:38:57.043Z,13
2019-05-13T14:43:55.939Z,12
2019-05-13T14:48:53.874Z,12
2019-05-13T14:53:56.204Z,12
2019-05-13T14:58:56.289Z,12
2019-05-13T15:03:56.217Z,11
2019-05-13T15:08:56.654Z,11
2019-05-13T15:13:56.628Z,10
2019-05-13T15:18:56.536Z,11
2019-05-13T15:23:55.973Z,13
2019-05-13T15:28:56.267Z,11
2019-05-13T15:33:56.441Z,12
2019-05-13T15:38:55.974Z,10
2019-05-13T15:43:56.114Z,11
2019-05-13T15:49:05.930Z,11
2019-05-13T15:54:02.039Z,11
2019-05-13T15:58:57.007Z,12
2019-05-13T16:03:56.412Z,12
2019-05-13T16:08:56.282Z,11
2019-05-13T16:13:56.055Z,12
2019-05-13T16:18:55.590Z,13
2019-05-13T16:23:57.806Z,28
2019-05-13T16:28:57.435Z,18
2019-05-13T16:33:57.525Z,14
2019-05-13T16:38:57.422Z,14
2019-05-13T16:43:57.412Z,30
2019-05-13T16:48:57.492Z,16
2019-05-13T16:53:57.403Z,15
2019-05-13T16:58:57.435Z,15
2019-05-13T17:03:57.431Z,18
2019-05-13T17:08:57.429Z,17
2019-05-13T17:13:57.390Z,14
2019-05-13T17:18:57.379Z,16
2019-05-13T17:23:57.455Z,18
2019-05-13T17:28:57.365Z,19
2019-05-13T17:33:57.375Z,20
2019-05-13T17:38:57.419Z,17
2019-05-13T17:43:57.402Z,18
2019-05-13T17:48:57.417Z,16
2019-05-13T17:53:57.400Z,20
2019-05-13T17:58:57.359Z,16
2019-05-13T18:03:57.390Z,19
2019-05-13T18:08:57.346Z,18
2019-05-13T18:13:57.379Z,17
2019-05-13T18:18:57.350Z,15
2019-05-13T18:23:57.323Z,16
2019-05-13T18:28:58.082Z,16
2019-05-13T18:33:58.038Z,17
2019-05-13T18:39:03.753Z,14
2019-05-13T18:44:01.274Z,16
2019-05-13T18:49:04.336Z,17
2019-05-13T18:54:01.115Z,19
2019-05-13T18:59:01.462Z,19
2019-05-13T19:03:59.108Z,19
2019-05-13T19:08:59.112Z,17
2019-05-13T19:13:59.125Z,17
2019-05-13T19:19:11.594Z,18
2019-05-13T19:23:59.155Z,19
2019-05-13T19:28:59.123Z,19
2019-05-13T19:34:01.332Z,18
2019-05-13T19:38:59.074Z,20
2019-05-13T19:44:05.756Z,16
2019-05-13T19:49:05.690Z,17
2019-05-13T19:54:05.360Z,21
2019-05-13T19:59:05.679Z,19
2019-05-13T20:04:06.423Z,20
2019-05-13T20:09:05.678Z,20
2019-05-13T20:14:05.544Z,20
2019-05-13T20:19:05.395Z,19
2019-05-13T20:24:03.847Z,20
2019-05-13T20:29:05.748Z,18
2019-05-13T20:34:05.859Z,18
2019-05-13T20:39:06.227Z,19
2019-05-13T20:44:05.659Z,19
2019-05-13T20:49:06.665Z,20
2019-05-13T20:54:06.652Z,17
2019-05-13T20:59:06.679Z,22
2019-05-13T21:04:06.639Z,20
2019-05-13T21:09:06.679Z,19
2019-05-13T21:14:06.658Z,20
2019-05-13T21:19:06.673Z,21
2019-05-13T21:24:06.630Z,20
2019-05-13T21:29:06.665Z,21
2019-05-13T21:34:06.629Z,23
2019-05-13T21:39:06.678Z,22
2019-05-13T21:44:06.631Z,23
2019-05-13T21:49:06.624Z,23
2019-05-13T21:54:11.731Z,25
2019-05-13T21:59:10.757Z,24
2019-05-13T22:04:12.290Z,22
2019-05-13T22:09:11.665Z,23
2019-05-13T22:14:13.399Z,23
2019-05-13T22:19:12.185Z,23
2019-05-13T22:24:11.544Z,25
2019-05-13T22:29:10.705Z,26
2019-05-13T22:34:12.014Z,23
2019-05-13T22:39:11.477Z,22
2019-05-13T22:44:13.572Z,19
2019-05-13T22:49:11.525Z,19
2019-05-13T22:54:11.823Z,18
2019-05-13T22:59:12.173Z,18
2019-05-13T23:04:11.420Z,23
2019-05-13T23:09:12.410Z,19
2019-05-13T23:14:15.687Z,21
2019-05-13T23:19:13.119Z,23
2019-05-13T23:24:11.293Z,22
2019-05-13T23:29:10.634Z,21
2019-05-13T23:34:11.976Z,24
2019-05-13T23:39:11.600Z,23
2019-05-13T23:44:32.154Z,22
2019-05-13T23:49:13.969Z,23
2019-05-13T23:54:12.177Z,20
2019-05-13T23:59:11.299Z,21
